sensor_id;sensor_type;location;lat;lon;timestamp;P1;durP1;ratioP1;P2;durP2;ratioP2
71753;SDS011;59593;51.716;7.016;2022-11-11T00:00:30;10.53;;;4.23;;
71753;SDS011;59593;51.716;7.016;2022-11-11T00:02:57;9.53;;;4.30;;
71753;SDS011;59593;51.716;7.016;2022-11-11T00:05:23;8.95;;;4.05;;
71753;SDS011;59593;51.716;7.016;2022-11-11T00:07:53;10.03;;;4.40;;
71753;SDS011;59593;51.716;7.016;2022-11-11T00:10:27;9.47;;;4.50;;
71753;SDS011;59593;51.716;7.016;2022-11-11T00:12:57;7.53;;;4.47;;
71753;SDS011;59593;51.716;7.016;2022-11-11T00:15:23;11.40;;;4.53;;
71753;SDS011;59593;51.716;7.016;2022-11-11T00:17:49;9.50;;;4.37;;
71753;SDS011;59593;51.716;7.016;2022-11-11T00:20:33;10.93;;;4.40;;
71753;SDS011;59593;51.716;7.016;2022-11-11T00:23:22;7.30;;;4.33;;
71753;SDS011;59593;51.716;7.016;2022-11-11T00:26:09;11.80;;;4.80;;
71753;SDS011;59593;51.716;7.016;2022-11-11T00:28:36;10.90;;;4.20;;
71753;SDS011;59593;51.716;7.016;2022-11-11T00:31:02;7.50;;;4.23;;
71753;SDS011;59593;51.716;7.016;2022-11-11T00:33:30;9.00;;;4.40;;
71753;SDS011;59593;51.716;7.016;2022-11-11T00:35:56;10.43;;;4.53;;
71753;SDS011;59593;51.716;7.016;2022-11-11T00:38:22;12.33;;;4.50;;
71753;SDS011;59593;51.716;7.016;2022-11-11T00:41:06;11.40;;;4.43;;
71753;SDS011;59593;51.716;7.016;2022-11-11T00:43:32;7.27;;;4.40;;
71753;SDS011;59593;51.716;7.016;2022-11-11T00:45:57;8.10;;;4.67;;
71753;SDS011;59593;51.716;7.016;2022-11-11T00:48:43;9.43;;;4.33;;
71753;SDS011;59593;51.716;7.016;2022-11-11T00:51:27;11.43;;;4.80;;
71753;SDS011;59593;51.716;7.016;2022-11-11T00:53:53;9.30;;;4.50;;
71753;SDS011;59593;51.716;7.016;2022-11-11T00:56:18;9.93;;;5.03;;
71753;SDS011;59593;51.716;7.016;2022-11-11T00:58:45;9.30;;;4.60;;
71753;SDS011;59593;51.716;7.016;2022-11-11T01:01:11;10.73;;;4.90;;
71753;SDS011;59593;51.716;7.016;2022-11-11T01:03:36;9.23;;;4.87;;
71753;SDS011;59593;51.716;7.016;2022-11-11T01:06:02;8.30;;;4.70;;
71753;SDS011;59593;51.716;7.016;2022-11-11T01:08:29;10.23;;;4.90;;
71753;SDS011;59593;51.716;7.016;2022-11-11T01:10:56;9.60;;;4.90;;
71753;SDS011;59593;51.716;7.016;2022-11-11T01:13:22;11.30;;;4.40;;
71753;SDS011;59593;51.716;7.016;2022-11-11T01:15:50;8.30;;;4.50;;
71753;SDS011;59593;51.716;7.016;2022-11-11T01:18:21;8.53;;;4.63;;
71753;SDS011;59593;51.716;7.016;2022-11-11T01:20:59;9.83;;;5.40;;
71753;SDS011;59593;51.716;7.016;2022-11-11T01:23:30;9.90;;;4.90;;
71753;SDS011;59593;51.716;7.016;2022-11-11T01:26:00;9.77;;;4.80;;
71753;SDS011;59593;51.716;7.016;2022-11-11T01:28:27;11.70;;;5.10;;
71753;SDS011;59593;51.716;7.016;2022-11-11T01:30:53;11.07;;;5.03;;
71753;SDS011;59593;51.716;7.016;2022-11-11T01:33:24;7.63;;;4.93;;
71753;SDS011;59593;51.716;7.016;2022-11-11T01:35:49;9.87;;;4.97;;
71753;SDS011;59593;51.716;7.016;2022-11-11T01:38:15;10.87;;;5.13;;
71753;SDS011;59593;51.716;7.016;2022-11-11T01:40:42;12.17;;;5.70;;
71753;SDS011;59593;51.716;7.016;2022-11-11T01:45:46;9.57;;;5.53;;
71753;SDS011;59593;51.716;7.016;2022-11-11T01:51:19;10.17;;;4.97;;
71753;SDS011;59593;51.716;7.016;2022-11-11T01:54:16;8.63;;;5.30;;
71753;SDS011;59593;51.716;7.016;2022-11-11T01:56:58;10.37;;;5.23;;
71753;SDS011;59593;51.716;7.016;2022-11-11T01:59:27;11.23;;;5.67;;
71753;SDS011;59593;51.716;7.016;2022-11-11T02:01:56;9.70;;;5.00;;
71753;SDS011;59593;51.716;7.016;2022-11-11T02:04:22;10.67;;;6.13;;
71753;SDS011;59593;51.716;7.016;2022-11-11T02:07:08;11.80;;;5.50;;
71753;SDS011;59593;51.716;7.016;2022-11-11T02:09:35;10.17;;;5.30;;
71753;SDS011;59593;51.716;7.016;2022-11-11T02:12:07;9.73;;;5.30;;
71753;SDS011;59593;51.716;7.016;2022-11-11T02:14:56;13.97;;;5.60;;
71753;SDS011;59593;51.716;7.016;2022-11-11T02:17:25;12.77;;;6.00;;
71753;SDS011;59593;51.716;7.016;2022-11-11T02:19:54;12.73;;;5.30;;
71753;SDS011;59593;51.716;7.016;2022-11-11T02:22:43;9.60;;;5.67;;
71753;SDS011;59593;51.716;7.016;2022-11-11T02:25:25;11.03;;;6.00;;
71753;SDS011;59593;51.716;7.016;2022-11-11T02:27:56;9.97;;;5.43;;
71753;SDS011;59593;51.716;7.016;2022-11-11T02:30:25;15.53;;;5.93;;
71753;SDS011;59593;51.716;7.016;2022-11-11T02:32:52;9.50;;;5.07;;
71753;SDS011;59593;51.716;7.016;2022-11-11T02:35:23;12.27;;;6.10;;
71753;SDS011;59593;51.716;7.016;2022-11-11T02:37:54;11.93;;;5.90;;
71753;SDS011;59593;51.716;7.016;2022-11-11T02:40:28;11.10;;;5.60;;
71753;SDS011;59593;51.716;7.016;2022-11-11T02:42:57;10.03;;;5.80;;
71753;SDS011;59593;51.716;7.016;2022-11-11T02:45:23;11.83;;;5.50;;
71753;SDS011;59593;51.716;7.016;2022-11-11T02:47:49;15.13;;;5.80;;
71753;SDS011;59593;51.716;7.016;2022-11-11T02:50:14;13.70;;;6.00;;
71753;SDS011;59593;51.716;7.016;2022-11-11T02:52:40;9.47;;;5.73;;
71753;SDS011;59593;51.716;7.016;2022-11-11T02:55:06;11.30;;;5.33;;
71753;SDS011;59593;51.716;7.016;2022-11-11T02:57:32;10.90;;;5.40;;
71753;SDS011;59593;51.716;7.016;2022-11-11T02:59:58;10.93;;;5.30;;
71753;SDS011;59593;51.716;7.016;2022-11-11T03:02:25;11.07;;;5.13;;
71753;SDS011;59593;51.716;7.016;2022-11-11T03:04:52;9.77;;;4.90;;
71753;SDS011;59593;51.716;7.016;2022-11-11T03:07:21;11.83;;;5.40;;
71753;SDS011;59593;51.716;7.016;2022-11-11T03:09:48;10.77;;;5.10;;
71753;SDS011;59593;51.716;7.016;2022-11-11T03:12:15;11.50;;;5.10;;
71753;SDS011;59593;51.716;7.016;2022-11-11T03:14:41;10.00;;;4.97;;
71753;SDS011;59593;51.716;7.016;2022-11-11T03:17:07;16.47;;;5.17;;
71753;SDS011;59593;51.716;7.016;2022-11-11T03:19:51;11.07;;;5.10;;
71753;SDS011;59593;51.716;7.016;2022-11-11T03:22:17;9.90;;;4.50;;
71753;SDS011;59593;51.716;7.016;2022-11-11T03:24:42;14.10;;;5.00;;
71753;SDS011;59593;51.716;7.016;2022-11-11T03:27:26;10.83;;;4.77;;
71753;SDS011;59593;51.716;7.016;2022-11-11T03:29:52;10.27;;;5.70;;
71753;SDS011;59593;51.716;7.016;2022-11-11T03:32:17;11.30;;;5.80;;
71753;SDS011;59593;51.716;7.016;2022-11-11T03:34:43;13.10;;;5.53;;
71753;SDS011;59593;51.716;7.016;2022-11-11T03:37:09;11.50;;;5.20;;
71753;SDS011;59593;51.716;7.016;2022-11-11T03:39:54;9.00;;;5.10;;
71753;SDS011;59593;51.716;7.016;2022-11-11T03:42:19;13.33;;;5.80;;
71753;SDS011;59593;51.716;7.016;2022-11-11T03:44:45;14.20;;;5.70;;
71753;SDS011;59593;51.716;7.016;2022-11-11T03:47:11;12.47;;;5.57;;
71753;SDS011;59593;51.716;7.016;2022-11-11T03:49:36;15.00;;;6.20;;
71753;SDS011;59593;51.716;7.016;2022-11-11T03:52:02;9.77;;;5.97;;
71753;SDS011;59593;51.716;7.016;2022-11-11T03:54:28;9.70;;;5.83;;
71753;SDS011;59593;51.716;7.016;2022-11-11T03:56:53;13.50;;;6.27;;
71753;SDS011;59593;51.716;7.016;2022-11-11T03:59:39;11.10;;;6.20;;
71753;SDS011;59593;51.716;7.016;2022-11-11T04:02:04;12.67;;;6.60;;
71753;SDS011;59593;51.716;7.016;2022-11-11T04:04:56;17.50;;;10.27;;
71753;SDS011;59593;51.716;7.016;2022-11-11T04:07:40;19.33;;;11.87;;
71753;SDS011;59593;51.716;7.016;2022-11-11T04:10:24;25.20;;;15.43;;
71753;SDS011;59593;51.716;7.016;2022-11-11T04:12:52;20.60;;;12.03;;
71753;SDS011;59593;51.716;7.016;2022-11-11T04:15:37;22.27;;;12.53;;
71753;SDS011;59593;51.716;7.016;2022-11-11T04:18:21;27.20;;;12.77;;
71753;SDS011;59593;51.716;7.016;2022-11-11T04:21:06;25.97;;;14.40;;
71753;SDS011;59593;51.716;7.016;2022-11-11T04:23:51;16.70;;;10.07;;
71753;SDS011;59593;51.716;7.016;2022-11-11T04:26:17;13.53;;;7.93;;
71753;SDS011;59593;51.716;7.016;2022-11-11T04:28:42;15.03;;;10.10;;
71753;SDS011;59593;51.716;7.016;2022-11-11T04:31:26;12.10;;;8.80;;
71753;SDS011;59593;51.716;7.016;2022-11-11T04:33:52;14.40;;;8.77;;
71753;SDS011;59593;51.716;7.016;2022-11-11T04:36:17;15.73;;;8.50;;
71753;SDS011;59593;51.716;7.016;2022-11-11T04:38:43;14.77;;;9.07;;
71753;SDS011;59593;51.716;7.016;2022-11-11T04:41:38;15.63;;;8.57;;
71753;SDS011;59593;51.716;7.016;2022-11-11T04:44:03;14.37;;;7.70;;
71753;SDS011;59593;51.716;7.016;2022-11-11T04:46:48;17.87;;;10.03;;
71753;SDS011;59593;51.716;7.016;2022-11-11T04:49:13;16.83;;;10.70;;
71753;SDS011;59593;51.716;7.016;2022-11-11T04:51:39;18.30;;;10.07;;
71753;SDS011;59593;51.716;7.016;2022-11-11T04:54:23;17.20;;;9.43;;
71753;SDS011;59593;51.716;7.016;2022-11-11T04:56:48;15.83;;;9.20;;
71753;SDS011;59593;51.716;7.016;2022-11-11T04:59:15;18.07;;;10.37;;
71753;SDS011;59593;51.716;7.016;2022-11-11T05:01:40;19.50;;;9.60;;
71753;SDS011;59593;51.716;7.016;2022-11-11T05:04:25;14.10;;;9.00;;
71753;SDS011;59593;51.716;7.016;2022-11-11T05:06:51;16.73;;;9.10;;
71753;SDS011;59593;51.716;7.016;2022-11-11T05:09:35;18.03;;;9.00;;
71753;SDS011;59593;51.716;7.016;2022-11-11T05:12:00;15.77;;;9.20;;
71753;SDS011;59593;51.716;7.016;2022-11-11T05:14:26;16.20;;;8.23;;
71753;SDS011;59593;51.716;7.016;2022-11-11T05:17:10;14.20;;;8.23;;
71753;SDS011;59593;51.716;7.016;2022-11-11T05:19:54;17.73;;;9.03;;
71753;SDS011;59593;51.716;7.016;2022-11-11T05:22:39;14.17;;;8.20;;
71753;SDS011;59593;51.716;7.016;2022-11-11T05:25:06;13.67;;;8.17;;
71753;SDS011;59593;51.716;7.016;2022-11-11T05:27:54;15.80;;;8.57;;
71753;SDS011;59593;51.716;7.016;2022-11-11T05:30:21;14.73;;;8.10;;
71753;SDS011;59593;51.716;7.016;2022-11-11T05:32:48;15.10;;;8.60;;
71753;SDS011;59593;51.716;7.016;2022-11-11T05:35:14;13.17;;;7.83;;
71753;SDS011;59593;51.716;7.016;2022-11-11T05:37:40;14.50;;;7.90;;
71753;SDS011;59593;51.716;7.016;2022-11-11T05:40:07;12.30;;;7.90;;
71753;SDS011;59593;51.716;7.016;2022-11-11T05:42:34;15.13;;;8.10;;
71753;SDS011;59593;51.716;7.016;2022-11-11T05:44:59;15.83;;;8.30;;
71753;SDS011;59593;51.716;7.016;2022-11-11T05:47:25;11.57;;;7.77;;
71753;SDS011;59593;51.716;7.016;2022-11-11T05:49:51;13.13;;;7.73;;
71753;SDS011;59593;51.716;7.016;2022-11-11T05:52:16;15.53;;;7.97;;
71753;SDS011;59593;51.716;7.016;2022-11-11T05:54:42;14.47;;;7.80;;
71753;SDS011;59593;51.716;7.016;2022-11-11T05:57:08;12.43;;;8.40;;
71753;SDS011;59593;51.716;7.016;2022-11-11T05:59:35;12.80;;;7.70;;
71753;SDS011;59593;51.716;7.016;2022-11-11T06:02:01;11.17;;;7.40;;
71753;SDS011;59593;51.716;7.016;2022-11-11T06:04:27;15.67;;;7.93;;
71753;SDS011;59593;51.716;7.016;2022-11-11T06:06:53;10.33;;;7.13;;
71753;SDS011;59593;51.716;7.016;2022-11-11T06:09:18;10.93;;;6.77;;
71753;SDS011;59593;51.716;7.016;2022-11-11T06:11:44;13.73;;;7.20;;
71753;SDS011;59593;51.716;7.016;2022-11-11T06:14:10;10.67;;;7.00;;
71753;SDS011;59593;51.716;7.016;2022-11-11T06:16:35;13.73;;;7.57;;
71753;SDS011;59593;51.716;7.016;2022-11-11T06:19:01;11.17;;;7.23;;
71753;SDS011;59593;51.716;7.016;2022-11-11T06:21:28;11.20;;;6.70;;
71753;SDS011;59593;51.716;7.016;2022-11-11T06:23:56;9.50;;;6.87;;
71753;SDS011;59593;51.716;7.016;2022-11-11T06:26:21;11.77;;;6.47;;
71753;SDS011;59593;51.716;7.016;2022-11-11T06:31:14;12.83;;;6.67;;
71753;SDS011;59593;51.716;7.016;2022-11-11T06:33:42;9.47;;;6.43;;
71753;SDS011;59593;51.716;7.016;2022-11-11T06:36:09;9.60;;;6.47;;
71753;SDS011;59593;51.716;7.016;2022-11-11T06:38:37;8.93;;;6.70;;
71753;SDS011;59593;51.716;7.016;2022-11-11T06:41:03;10.53;;;7.10;;
71753;SDS011;59593;51.716;7.016;2022-11-11T06:43:29;10.53;;;6.50;;
71753;SDS011;59593;51.716;7.016;2022-11-11T06:45:55;10.13;;;6.70;;
71753;SDS011;59593;51.716;7.016;2022-11-11T06:48:22;12.07;;;6.80;;
71753;SDS011;59593;51.716;7.016;2022-11-11T06:50:48;9.83;;;6.33;;
71753;SDS011;59593;51.716;7.016;2022-11-11T06:53:15;9.47;;;6.30;;
71753;SDS011;59593;51.716;7.016;2022-11-11T06:55:42;11.00;;;6.13;;
71753;SDS011;59593;51.716;7.016;2022-11-11T06:58:11;10.97;;;6.00;;
71753;SDS011;59593;51.716;7.016;2022-11-11T07:00:40;11.40;;;6.43;;
71753;SDS011;59593;51.716;7.016;2022-11-11T07:03:06;9.77;;;5.70;;
71753;SDS011;59593;51.716;7.016;2022-11-11T07:05:33;8.60;;;5.87;;
71753;SDS011;59593;51.716;7.016;2022-11-11T07:08:02;8.97;;;5.93;;
71753;SDS011;59593;51.716;7.016;2022-11-11T07:10:30;8.87;;;5.97;;
71753;SDS011;59593;51.716;7.016;2022-11-11T07:12:56;9.77;;;5.97;;
71753;SDS011;59593;51.716;7.016;2022-11-11T07:15:22;8.33;;;5.50;;
71753;SDS011;59593;51.716;7.016;2022-11-11T07:17:48;11.67;;;5.80;;
71753;SDS011;59593;51.716;7.016;2022-11-11T07:20:17;10.60;;;5.43;;
71753;SDS011;59593;51.716;7.016;2022-11-11T07:22:42;8.93;;;5.40;;
71753;SDS011;59593;51.716;7.016;2022-11-11T07:25:08;9.43;;;5.77;;
71753;SDS011;59593;51.716;7.016;2022-11-11T07:27:37;9.47;;;5.80;;
71753;SDS011;59593;51.716;7.016;2022-11-11T07:30:04;8.50;;;5.43;;
71753;SDS011;59593;51.716;7.016;2022-11-11T07:32:34;6.53;;;5.13;;
71753;SDS011;59593;51.716;7.016;2022-11-11T07:35:00;11.47;;;5.73;;
71753;SDS011;59593;51.716;7.016;2022-11-11T07:37:26;8.53;;;5.57;;
71753;SDS011;59593;51.716;7.016;2022-11-11T07:39:52;9.53;;;5.70;;
71753;SDS011;59593;51.716;7.016;2022-11-11T07:42:18;7.93;;;5.33;;
71753;SDS011;59593;51.716;7.016;2022-11-11T07:44:44;10.13;;;5.97;;
71753;SDS011;59593;51.716;7.016;2022-11-11T07:47:10;11.57;;;6.73;;
71753;SDS011;59593;51.716;7.016;2022-11-11T07:49:36;8.73;;;6.53;;
71753;SDS011;59593;51.716;7.016;2022-11-11T07:52:01;8.83;;;6.47;;
71753;SDS011;59593;51.716;7.016;2022-11-11T07:54:27;11.10;;;6.40;;
71753;SDS011;59593;51.716;7.016;2022-11-11T07:56:52;7.97;;;5.60;;
71753;SDS011;59593;51.716;7.016;2022-11-11T07:59:21;9.33;;;5.80;;
71753;SDS011;59593;51.716;7.016;2022-11-11T08:01:47;9.53;;;6.20;;
71753;SDS011;59593;51.716;7.016;2022-11-11T08:04:13;9.87;;;6.40;;
71753;SDS011;59593;51.716;7.016;2022-11-11T08:06:38;7.43;;;6.10;;
71753;SDS011;59593;51.716;7.016;2022-11-11T08:09:04;7.67;;;6.10;;
71753;SDS011;59593;51.716;7.016;2022-11-11T08:11:30;11.97;;;6.03;;
71753;SDS011;59593;51.716;7.016;2022-11-11T08:14:14;10.60;;;6.20;;
71753;SDS011;59593;51.716;7.016;2022-11-11T08:16:39;10.57;;;5.70;;
71753;SDS011;59593;51.716;7.016;2022-11-11T08:19:05;9.20;;;6.13;;
71753;SDS011;59593;51.716;7.016;2022-11-11T08:21:31;10.03;;;6.13;;
71753;SDS011;59593;51.716;7.016;2022-11-11T08:23:56;11.60;;;5.93;;
71753;SDS011;59593;51.716;7.016;2022-11-11T08:26:22;9.87;;;5.40;;
71753;SDS011;59593;51.716;7.016;2022-11-11T08:28:48;10.10;;;5.60;;
71753;SDS011;59593;51.716;7.016;2022-11-11T08:31:16;9.73;;;5.50;;
71753;SDS011;59593;51.716;7.016;2022-11-11T08:33:41;12.50;;;6.07;;
71753;SDS011;59593;51.716;7.016;2022-11-11T08:36:07;7.40;;;5.20;;
71753;SDS011;59593;51.716;7.016;2022-11-11T08:38:35;10.47;;;5.20;;
71753;SDS011;59593;51.716;7.016;2022-11-11T08:41:02;10.03;;;5.20;;
71753;SDS011;59593;51.716;7.016;2022-11-11T08:43:29;10.37;;;5.23;;
71753;SDS011;59593;51.716;7.016;2022-11-11T08:45:56;10.60;;;4.83;;
71753;SDS011;59593;51.716;7.016;2022-11-11T08:48:23;9.37;;;4.83;;
71753;SDS011;59593;51.716;7.016;2022-11-11T08:50:50;8.57;;;4.53;;
71753;SDS011;59593;51.716;7.016;2022-11-11T08:53:16;7.97;;;4.70;;
71753;SDS011;59593;51.716;7.016;2022-11-11T08:55:41;10.03;;;4.47;;
71753;SDS011;59593;51.716;7.016;2022-11-11T08:58:08;6.57;;;4.47;;
71753;SDS011;59593;51.716;7.016;2022-11-11T09:00:35;8.60;;;4.53;;
71753;SDS011;59593;51.716;7.016;2022-11-11T09:03:04;8.87;;;4.53;;
71753;SDS011;59593;51.716;7.016;2022-11-11T09:05:31;6.90;;;4.47;;
71753;SDS011;59593;51.716;7.016;2022-11-11T09:07:59;8.77;;;4.47;;
71753;SDS011;59593;51.716;7.016;2022-11-11T09:10:25;11.90;;;4.37;;
71753;SDS011;59593;51.716;7.016;2022-11-11T09:12:55;8.53;;;4.33;;
71753;SDS011;59593;51.716;7.016;2022-11-11T09:15:21;5.63;;;4.03;;
71753;SDS011;59593;51.716;7.016;2022-11-11T09:17:47;8.27;;;4.37;;
71753;SDS011;59593;51.716;7.016;2022-11-11T09:20:13;6.10;;;4.20;;
71753;SDS011;59593;51.716;7.016;2022-11-11T09:22:42;6.63;;;4.13;;
71753;SDS011;59593;51.716;7.016;2022-11-11T09:25:08;6.67;;;3.70;;
71753;SDS011;59593;51.716;7.016;2022-11-11T09:27:34;6.97;;;4.00;;
71753;SDS011;59593;51.716;7.016;2022-11-11T09:30:00;6.50;;;4.20;;
71753;SDS011;59593;51.716;7.016;2022-11-11T09:32:25;6.93;;;4.00;;
71753;SDS011;59593;51.716;7.016;2022-11-11T09:34:51;6.47;;;3.53;;
71753;SDS011;59593;51.716;7.016;2022-11-11T09:37:19;9.37;;;3.80;;
71753;SDS011;59593;51.716;7.016;2022-11-11T09:39:45;6.77;;;3.80;;
71753;SDS011;59593;51.716;7.016;2022-11-11T09:42:20;5.83;;;3.70;;
71753;SDS011;59593;51.716;7.016;2022-11-11T09:50:22;7.67;;;3.47;;
71753;SDS011;59593;51.716;7.016;2022-11-11T09:58:12;6.70;;;3.63;;
71753;SDS011;59593;51.716;7.016;2022-11-11T10:00:50;8.17;;;3.80;;
71753;SDS011;59593;51.716;7.016;2022-11-11T10:03:25;7.90;;;3.63;;
71753;SDS011;59593;51.716;7.016;2022-11-11T10:08:29;7.63;;;4.00;;
71753;SDS011;59593;51.716;7.016;2022-11-11T10:11:01;6.67;;;3.70;;
71753;SDS011;59593;51.716;7.016;2022-11-11T10:13:36;6.60;;;3.90;;
71753;SDS011;59593;51.716;7.016;2022-11-11T10:21:38;9.93;;;3.70;;
71753;SDS011;59593;51.716;7.016;2022-11-11T10:24:10;7.90;;;3.80;;
71753;SDS011;59593;51.716;7.016;2022-11-11T10:26:40;5.77;;;3.40;;
71753;SDS011;59593;51.716;7.016;2022-11-11T10:29:18;6.80;;;3.60;;
71753;SDS011;59593;51.716;7.016;2022-11-11T10:31:54;7.00;;;3.50;;
71753;SDS011;59593;51.716;7.016;2022-11-11T10:34:27;7.83;;;3.70;;
71753;SDS011;59593;51.716;7.016;2022-11-11T10:36:57;6.40;;;3.30;;
71753;SDS011;59593;51.716;7.016;2022-11-11T10:39:33;6.63;;;3.20;;
71753;SDS011;59593;51.716;7.016;2022-11-11T10:42:24;8.60;;;3.33;;
71753;SDS011;59593;51.716;7.016;2022-11-11T10:44:50;7.60;;;3.90;;
71753;SDS011;59593;51.716;7.016;2022-11-11T10:52:55;7.88;;;3.53;;
71753;SDS011;59593;51.716;7.016;2022-11-11T10:55:37;7.27;;;3.50;;
71753;SDS011;59593;51.716;7.016;2022-11-11T10:58:42;8.15;;;3.28;;
71753;SDS011;59593;51.716;7.016;2022-11-11T11:04:05;6.53;;;3.47;;
71753;SDS011;59593;51.716;7.016;2022-11-11T11:06:37;5.93;;;3.30;;
71753;SDS011;59593;51.716;7.016;2022-11-11T11:09:14;10.43;;;3.60;;
71753;SDS011;59593;51.716;7.016;2022-11-11T11:11:49;7.00;;;3.60;;
71753;SDS011;59593;51.716;7.016;2022-11-11T11:14:20;6.05;;;3.80;;
71753;SDS011;59593;51.716;7.016;2022-11-11T11:16:53;8.27;;;3.97;;
71753;SDS011;59593;51.716;7.016;2022-11-11T11:19:24;7.87;;;4.23;;
71753;SDS011;59593;51.716;7.016;2022-11-11T11:21:52;8.23;;;3.65;;
71753;SDS011;59593;51.716;7.016;2022-11-11T11:27:02;8.65;;;3.65;;
71753;SDS011;59593;51.716;7.016;2022-11-11T11:29:35;10.82;;;4.15;;
71753;SDS011;59593;51.716;7.016;2022-11-11T11:32:10;9.18;;;3.80;;
71753;SDS011;59593;51.716;7.016;2022-11-11T11:37:10;6.55;;;3.67;;
71753;SDS011;59593;51.716;7.016;2022-11-11T11:39:37;7.13;;;3.53;;
71753;SDS011;59593;51.716;7.016;2022-11-11T11:42:04;10.50;;;3.78;;
71753;SDS011;59593;51.716;7.016;2022-11-11T11:44:34;10.35;;;4.15;;
71753;SDS011;59593;51.716;7.016;2022-11-11T11:47:17;6.90;;;3.45;;
71753;SDS011;59593;51.716;7.016;2022-11-11T11:50:07;8.68;;;3.60;;
71753;SDS011;59593;51.716;7.016;2022-11-11T12:01:28;15.05;;;4.30;;
71753;SDS011;59593;51.716;7.016;2022-11-11T12:09:43;12.27;;;3.67;;
71753;SDS011;59593;51.716;7.016;2022-11-11T12:12:55;7.88;;;3.78;;
71753;SDS011;59593;51.716;7.016;2022-11-11T12:21:13;8.63;;;3.25;;
71753;SDS011;59593;51.716;7.016;2022-11-11T12:23:48;7.68;;;2.75;;
71753;SDS011;59593;51.716;7.016;2022-11-11T12:26:24;7.70;;;2.50;;
71753;SDS011;59593;51.716;7.016;2022-11-11T12:46:10;4.95;;;2.10;;
71753;SDS011;59593;51.716;7.016;2022-11-11T12:48:53;5.82;;;2.22;;
71753;SDS011;59593;51.716;7.016;2022-11-11T12:54:12;7.47;;;2.60;;
71753;SDS011;59593;51.716;7.016;2022-11-11T13:02:29;4.30;;;1.95;;
71753;SDS011;59593;51.716;7.016;2022-11-11T13:05:21;5.82;;;2.13;;
71753;SDS011;59593;51.716;7.016;2022-11-11T13:10:43;5.03;;;2.30;;
71753;SDS011;59593;51.716;7.016;2022-11-11T13:15:57;4.50;;;2.28;;
71753;SDS011;59593;51.716;7.016;2022-11-11T13:21:42;6.40;;;2.70;;
71753;SDS011;59593;51.716;7.016;2022-11-11T13:24:15;7.38;;;2.70;;
71753;SDS011;59593;51.716;7.016;2022-11-11T13:27:03;4.45;;;2.67;;
71753;SDS011;59593;51.716;7.016;2022-11-11T13:32:17;11.27;;;3.83;;
71753;SDS011;59593;51.716;7.016;2022-11-11T13:34:46;8.73;;;3.65;;
71753;SDS011;59593;51.716;7.016;2022-11-11T13:37:21;6.93;;;3.80;;
71753;SDS011;59593;51.716;7.016;2022-11-11T13:39:56;7.05;;;3.90;;
71753;SDS011;59593;51.716;7.016;2022-11-11T13:42:30;9.52;;;3.75;;
71753;SDS011;59593;51.716;7.016;2022-11-11T13:45:05;9.60;;;3.90;;
71753;SDS011;59593;51.716;7.016;2022-11-11T13:47:44;9.30;;;3.72;;
71753;SDS011;59593;51.716;7.016;2022-11-11T13:50:13;8.52;;;4.00;;
71753;SDS011;59593;51.716;7.016;2022-11-11T13:52:56;10.07;;;3.85;;
71753;SDS011;59593;51.716;7.016;2022-11-11T13:55:47;8.25;;;4.03;;
71753;SDS011;59593;51.716;7.016;2022-11-11T13:58:32;7.95;;;4.15;;
71753;SDS011;59593;51.716;7.016;2022-11-11T14:01:03;6.80;;;3.70;;
71753;SDS011;59593;51.716;7.016;2022-11-11T14:03:32;9.88;;;3.78;;
71753;SDS011;59593;51.716;7.016;2022-11-11T14:11:33;8.10;;;3.70;;
71753;SDS011;59593;51.716;7.016;2022-11-11T14:17:03;7.50;;;3.30;;
71753;SDS011;59593;51.716;7.016;2022-11-11T14:19:30;9.45;;;3.30;;
71753;SDS011;59593;51.716;7.016;2022-11-11T14:24:34;8.52;;;3.28;;
71753;SDS011;59593;51.716;7.016;2022-11-11T14:27:02;7.70;;;3.20;;
71753;SDS011;59593;51.716;7.016;2022-11-11T14:29:53;5.85;;;2.88;;
71753;SDS011;59593;51.716;7.016;2022-11-11T14:38:13;7.35;;;2.78;;
71753;SDS011;59593;51.716;7.016;2022-11-11T14:40:40;6.47;;;2.83;;
71753;SDS011;59593;51.716;7.016;2022-11-11T14:46:05;5.88;;;2.72;;
71753;SDS011;59593;51.716;7.016;2022-11-11T14:54:01;7.45;;;3.35;;
71753;SDS011;59593;51.716;7.016;2022-11-11T14:56:31;6.60;;;3.60;;
71753;SDS011;59593;51.716;7.016;2022-11-11T14:58:58;7.57;;;3.50;;
71753;SDS011;59593;51.716;7.016;2022-11-11T15:01:30;8.82;;;3.20;;
71753;SDS011;59593;51.716;7.016;2022-11-11T15:03:59;5.30;;;2.95;;
71753;SDS011;59593;51.716;7.016;2022-11-11T15:07:11;5.65;;;3.10;;
71753;SDS011;59593;51.716;7.016;2022-11-11T15:09:35;7.50;;;3.33;;
71753;SDS011;59593;51.716;7.016;2022-11-11T15:14:58;6.22;;;2.85;;
71753;SDS011;59593;51.716;7.016;2022-11-11T15:20:53;7.45;;;3.22;;
71753;SDS011;59593;51.716;7.016;2022-11-11T15:23:31;5.80;;;4.03;;
71753;SDS011;59593;51.716;7.016;2022-11-11T15:26:10;8.38;;;4.25;;
71753;SDS011;59593;51.716;7.016;2022-11-11T15:39:15;5.90;;;3.90;;
71753;SDS011;59593;51.716;7.016;2022-11-11T15:41:45;8.43;;;4.28;;
71753;SDS011;59593;51.716;7.016;2022-11-11T15:46:50;7.55;;;4.80;;
71753;SDS011;59593;51.716;7.016;2022-11-11T15:52:31;11.05;;;5.97;;
71753;SDS011;59593;51.716;7.016;2022-11-11T15:54:59;10.52;;;6.07;;
71753;SDS011;59593;51.716;7.016;2022-11-11T15:57:34;9.65;;;6.05;;
71753;SDS011;59593;51.716;7.016;2022-11-11T16:00:00;9.50;;;5.95;;
71753;SDS011;59593;51.716;7.016;2022-11-11T16:02:32;9.65;;;5.90;;
71753;SDS011;59593;51.716;7.016;2022-11-11T16:05:06;8.10;;;5.53;;
71753;SDS011;59593;51.716;7.016;2022-11-11T16:07:42;7.85;;;5.95;;
71753;SDS011;59593;51.716;7.016;2022-11-11T16:10:12;13.37;;;6.00;;
71753;SDS011;59593;51.716;7.016;2022-11-11T16:13:24;11.43;;;6.30;;
71753;SDS011;59593;51.716;7.016;2022-11-11T16:18:23;10.83;;;5.73;;
71753;SDS011;59593;51.716;7.016;2022-11-11T16:20:57;7.90;;;5.70;;
71753;SDS011;59593;51.716;7.016;2022-11-11T16:23:37;7.70;;;5.40;;
71753;SDS011;59593;51.716;7.016;2022-11-11T16:26:03;6.93;;;4.77;;
71753;SDS011;59593;51.716;7.016;2022-11-11T16:28:32;9.07;;;5.20;;
71753;SDS011;59593;51.716;7.016;2022-11-11T16:33:50;8.17;;;4.47;;
71753;SDS011;59593;51.716;7.016;2022-11-11T16:36:16;11.13;;;6.50;;
71753;SDS011;59593;51.716;7.016;2022-11-11T16:38:41;13.13;;;8.13;;
71753;SDS011;59593;51.716;7.016;2022-11-11T16:43:54;28.87;;;14.87;;
71753;SDS011;59593;51.716;7.016;2022-11-11T16:49:00;21.23;;;11.07;;
71753;SDS011;59593;51.716;7.016;2022-11-11T16:51:48;19.07;;;10.63;;
71753;SDS011;59593;51.716;7.016;2022-11-11T16:54:15;17.97;;;9.73;;
71753;SDS011;59593;51.716;7.016;2022-11-11T16:56:45;20.17;;;10.70;;
71753;SDS011;59593;51.716;7.016;2022-11-11T16:59:21;18.77;;;9.17;;
71753;SDS011;59593;51.716;7.016;2022-11-11T17:02:19;12.87;;;8.53;;
71753;SDS011;59593;51.716;7.016;2022-11-11T17:04:50;13.43;;;8.17;;
71753;SDS011;59593;51.716;7.016;2022-11-11T17:07:34;10.80;;;7.70;;
71753;SDS011;59593;51.716;7.016;2022-11-11T17:12:36;12.90;;;7.67;;
71753;SDS011;59593;51.716;7.016;2022-11-11T17:15:06;19.57;;;11.80;;
71753;SDS011;59593;51.716;7.016;2022-11-11T17:17:33;15.73;;;10.70;;
71753;SDS011;59593;51.716;7.016;2022-11-11T17:20:07;29.03;;;17.93;;
71753;SDS011;59593;51.716;7.016;2022-11-11T17:22:34;31.57;;;18.77;;
71753;SDS011;59593;51.716;7.016;2022-11-11T17:25:09;32.73;;;18.80;;
71753;SDS011;59593;51.716;7.016;2022-11-11T17:27:44;44.63;;;26.20;;
71753;SDS011;59593;51.716;7.016;2022-11-11T17:30:10;60.63;;;38.00;;
71753;SDS011;59593;51.716;7.016;2022-11-11T17:32:37;53.43;;;34.30;;
71753;SDS011;59593;51.716;7.016;2022-11-11T17:35:02;38.07;;;27.27;;
71753;SDS011;59593;51.716;7.016;2022-11-11T17:37:28;42.70;;;29.00;;
71753;SDS011;59593;51.716;7.016;2022-11-11T17:39:58;51.60;;;33.83;;
71753;SDS011;59593;51.716;7.016;2022-11-11T17:42:23;41.93;;;28.27;;